Time;durP1;ratioP1;P1;durP2;ratioP2;P2;SDS_P1;SDS_P2;PMS_P1;PMS_P2;Temp;Humidity;BMP_temperature;BMP_pressure;BME280_temperature;BME280_humidity;BME280_pressure;Samples;Min_cycle;Max_cycle;Signal;HPM_P1;HPM_P2
2022/06/25 00:00:30;;;;;;;4.93;3.90;;;15.90;99.90;;;;;;5007223;28;20975;-90
2022/06/25 00:02:57;;;;;;;7.43;3.57;;;15.90;99.90;;;;;;5036362;28;20202;-91
2022/06/25 00:05:49;;;;;;;3.70;3.40;;;15.80;99.90;;;;;;5030800;28;20274;-90
2022/06/25 00:08:16;;;;;;;4.53;3.67;;;15.70;99.90;;;;;;5028398;28;20512;-90
2022/06/25 00:10:43;;;;;;;3.87;3.57;;;15.70;99.90;;;;;;5022134;28;20484;-90
2022/06/25 00:13:09;;;;;;;3.60;3.30;;;15.70;99.90;;;;;;5021162;28;20531;-91
2022/06/25 00:15:34;;;;;;;5.03;3.20;;;15.60;99.90;;;;;;5026192;28;20488;-90
2022/06/25 00:18:00;;;;;;;5.33;3.30;;;15.60;99.90;;;;;;5034545;28;20904;-90
2022/06/25 00:20:26;;;;;;;3.57;3.27;;;15.60;99.90;;;;;;5025826;28;20171;-90
2022/06/25 00:22:54;;;;;;;6.13;3.10;;;15.50;99.90;;;;;;5052108;28;20237;-90
2022/06/25 00:25:20;;;;;;;4.50;3.00;;;15.50;99.90;;;;;;5040295;28;20275;-90
2022/06/25 00:27:45;;;;;;;3.40;3.10;;;15.50;99.90;;;;;;5019779;28;20490;-90
2022/06/25 00:30:11;;;;;;;3.60;3.30;;;15.50;99.90;;;;;;5029064;28;20204;-90
2022/06/25 00:32:38;;;;;;;3.40;3.07;;;15.50;99.90;;;;;;5031651;28;21707;-90
2022/06/25 00:35:10;;;;;;;3.37;3.07;;;15.50;99.90;;;;;;5026207;28;20191;-90
2022/06/25 00:37:36;;;;;;;3.90;3.60;;;15.40;99.90;;;;;;5040984;28;20855;-90
2022/06/25 00:40:07;;;;;;;3.30;2.90;;;15.40;99.90;;;;;;5031376;28;20442;-90
2022/06/25 00:42:33;;;;;;;6.53;3.23;;;15.30;99.90;;;;;;5033758;28;20492;-91
2022/06/25 00:44:58;;;;;;;2.90;2.80;;;15.40;99.90;;;;;;5022408;28;20438;-91
2022/06/25 00:47:24;;;;;;;3.57;3.17;;;15.30;99.90;;;;;;5027436;28;20264;-91
2022/06/25 00:49:51;;;;;;;6.27;3.13;;;15.30;99.90;;;;;;5025109;28;20272;-91
2022/06/25 00:52:19;;;;;;;3.30;3.10;;;15.30;99.90;;;;;;5029493;28;20195;-92
2022/06/25 00:54:48;;;;;;;5.47;3.10;;;15.30;99.90;;;;;;5032031;28;20466;-91
2022/06/25 00:57:24;;;;;;;2.97;2.77;;;15.30;99.90;;;;;;5028571;28;20422;-92
2022/06/25 00:59:51;;;;;;;3.60;3.17;;;15.30;99.90;;;;;;5022742;28;20523;-91
2022/06/25 01:02:18;;;;;;;3.37;3.10;;;15.30;99.90;;;;;;5048114;28;20496;-90
2022/06/25 01:04:43;;;;;;;3.93;3.27;;;15.30;99.90;;;;;;5028308;28;20453;-91
2022/06/25 01:07:12;;;;;;;3.73;2.73;;;15.20;99.90;;;;;;5042633;28;21051;-92
2022/06/25 01:09:40;;;;;;;3.67;3.33;;;15.20;99.90;;;;;;5022250;28;20230;-92
2022/06/25 01:12:08;;;;;;;4.03;3.30;;;15.20;99.90;;;;;;5026793;28;20450;-91
2022/06/25 01:14:35;;;;;;;5.83;3.97;;;15.10;99.90;;;;;;4989253;28;20457;-91
2022/06/25 01:17:06;;;;;;;3.90;3.60;;;15.10;99.90;;;;;;5022363;28;20446;-91
2022/06/25 01:19:32;;;;;;;3.40;3.17;;;15.10;99.90;;;;;;5023512;28;20433;-90
2022/06/25 01:22:04;;;;;;;3.30;3.10;;;15.10;99.90;;;;;;5026854;28;20476;-91
2022/06/25 01:24:31;;;;;;;5.77;3.27;;;15.00;99.90;;;;;;5022533;28;20183;-91
2022/06/25 01:26:57;;;;;;;3.20;3.00;;;15.10;99.90;;;;;;5043240;28;20454;-92
2022/06/25 01:29:23;;;;;;;3.27;3.07;;;15.00;99.90;;;;;;5025092;28;20450;-92
2022/06/25 01:31:48;;;;;;;4.30;3.00;;;15.00;99.90;;;;;;5017351;28;20442;-92
2022/06/25 01:34:14;;;;;;;3.27;3.03;;;14.90;99.90;;;;;;5021817;28;20959;-92
2022/06/25 01:36:42;;;;;;;3.30;3.00;;;15.00;99.90;;;;;;5028446;28;20453;-90
2022/06/25 01:39:10;;;;;;;3.13;2.93;;;15.00;99.90;;;;;;5007049;28;20194;-90
2022/06/25 01:41:40;;;;;;;3.57;3.27;;;14.90;99.90;;;;;;5010329;28;21358;-91
2022/06/25 01:44:11;;;;;;;3.20;2.90;;;14.90;99.90;;;;;;5025750;28;20465;-91
2022/06/25 01:46:37;;;;;;;3.60;3.10;;;14.80;99.90;;;;;;5029237;28;20446;-90
2022/06/25 01:49:04;;;;;;;3.63;3.33;;;14.80;99.90;;;;;;5025323;28;22055;-91
2022/06/25 01:51:30;;;;;;;3.13;2.93;;;14.80;99.90;;;;;;5031226;28;20559;-91
2022/06/25 01:53:59;;;;;;;3.13;2.93;;;14.80;99.90;;;;;;5028867;28;20441;-91
2022/06/25 01:56:25;;;;;;;3.23;3.03;;;14.70;99.90;;;;;;5028377;28;20552;-91
2022/06/25 01:58:51;;;;;;;4.33;4.03;;;14.70;99.90;;;;;;5031928;28;20525;-90
2022/06/25 02:01:16;;;;;;;3.50;3.30;;;14.70;99.90;;;;;;5032440;28;20975;-91
2022/06/25 02:03:42;;;;;;;3.40;3.20;;;14.70;99.90;;;;;;5034509;28;20203;-90
2022/06/25 02:06:09;;;;;;;3.13;2.83;;;14.70;99.90;;;;;;5032684;28;20309;-91
2022/06/25 02:08:36;;;;;;;3.40;3.10;;;14.70;99.90;;;;;;5043670;28;20474;-91
2022/06/25 02:11:05;;;;;;;2.90;2.70;;;14.60;99.90;;;;;;5017235;28;20450;-91
2022/06/25 02:13:31;;;;;;;7.83;3.50;;;14.60;99.90;;;;;;5034286;28;20442;-91
2022/06/25 02:15:57;;;;;;;3.00;2.80;;;14.70;99.90;;;;;;5036274;28;20969;-91
2022/06/25 02:18:24;;;;;;;3.30;2.73;;;14.50;99.90;;;;;;5036267;28;20430;-91
2022/06/25 02:20:50;;;;;;;3.30;3.10;;;14.50;99.90;;;;;;5035059;28;20551;-92
2022/06/25 02:23:17;;;;;;;4.33;2.90;;;14.50;99.90;;;;;;5026691;28;20437;-91
2022/06/25 02:25:43;;;;;;;5.70;3.30;;;14.50;99.90;;;;;;5035060;28;20438;-90
2022/06/25 02:28:09;;;;;;;2.93;2.70;;;14.40;99.90;;;;;;5032774;28;20474;-90
2022/06/25 02:30:35;;;;;;;2.93;2.70;;;14.40;99.90;;;;;;5038618;28;20745;-90
2022/06/25 02:33:01;;;;;;;4.33;3.10;;;14.40;99.90;;;;;;5030274;28;20971;-90
2022/06/25 02:35:27;;;;;;;5.57;3.10;;;14.40;99.90;;;;;;5011969;28;20193;-90
2022/06/25 02:37:53;;;;;;;3.60;3.30;;;14.50;99.90;;;;;;5023792;28;20477;-90
2022/06/25 02:40:31;;;;;;;2.70;2.50;;;14.40;99.90;;;;;;5035087;28;20175;-91
2022/06/25 02:43:05;;;;;;;4.03;3.00;;;14.40;99.90;;;;;;5046488;28;20179;-91
2022/06/25 02:45:30;;;;;;;3.43;2.80;;;14.40;99.90;;;;;;5031376;28;20469;-91
2022/06/25 02:47:56;;;;;;;3.63;3.07;;;14.40;99.90;;;;;;5038504;28;20889;-92
2022/06/25 02:50:24;;;;;;;5.13;3.03;;;14.40;99.90;;;;;;5031123;28;20194;-91
2022/06/25 02:52:50;;;;;;;3.10;2.83;;;14.30;99.90;;;;;;5024271;28;20480;-92
2022/06/25 02:55:16;;;;;;;4.47;3.00;;;14.30;99.90;;;;;;5036583;28;20766;-92
2022/06/25 03:00:26;;;;;;;3.30;3.00;;;14.30;99.90;;;;;;5021111;28;20911;-91
2022/06/25 03:02:52;;;;;;;2.53;2.37;;;14.30;99.90;;;;;;5024513;28;20431;-92
2022/06/25 03:05:18;;;;;;;5.00;3.30;;;14.30;99.90;;;;;;5038766;28;20190;-91
2022/06/25 03:07:43;;;;;;;3.37;3.17;;;14.30;99.90;;;;;;5021730;28;20317;-91
2022/06/25 03:10:17;;;;;;;3.57;2.70;;;14.30;99.90;;;;;;5025929;28;20194;-91
2022/06/25 03:12:45;;;;;;;3.20;3.00;;;14.30;99.90;;;;;;5022054;28;20199;-91
2022/06/25 03:15:11;;;;;;;3.00;2.83;;;14.20;99.90;;;;;;5024975;28;20449;-91
2022/06/25 03:17:36;;;;;;;3.13;2.93;;;14.20;99.90;;;;;;5019055;28;20449;-92
2022/06/25 03:20:02;;;;;;;3.30;3.00;;;14.20;99.90;;;;;;5021543;28;20222;-91
2022/06/25 03:22:28;;;;;;;2.77;2.57;;;14.20;99.90;;;;;;5023132;28;20187;-91
2022/06/25 03:24:54;;;;;;;2.93;2.73;;;14.20;99.90;;;;;;5033998;28;20496;-91
2022/06/25 03:27:21;;;;;;;3.20;3.00;;;14.20;99.90;;;;;;5022793;28;20466;-92
2022/06/25 03:29:47;;;;;;;3.30;3.00;;;14.20;99.90;;;;;;5021486;28;20176;-91
2022/06/25 03:32:12;;;;;;;3.23;2.97;;;14.10;99.90;;;;;;5025855;28;20443;-91
2022/06/25 03:34:38;;;;;;;3.70;3.40;;;14.20;99.90;;;;;;5028684;28;20182;-92
2022/06/25 03:37:03;;;;;;;3.20;3.00;;;14.20;99.90;;;;;;5022190;28;20183;-91
2022/06/25 03:39:29;;;;;;;2.70;2.60;;;14.20;99.90;;;;;;5016478;28;20187;-92
2022/06/25 03:41:55;;;;;;;4.20;2.60;;;14.20;99.90;;;;;;5029998;28;20186;-92
2022/06/25 03:44:20;;;;;;;3.00;2.80;;;14.30;99.90;;;;;;5030737;28;20176;-92
2022/06/25 03:46:46;;;;;;;4.33;2.73;;;14.10;99.90;;;;;;5031975;28;20218;-91
2022/06/25 03:49:11;;;;;;;3.20;3.00;;;14.10;99.90;;;;;;5034272;28;20215;-92
2022/06/25 03:51:37;;;;;;;4.17;3.13;;;14.30;99.90;;;;;;5039362;28;20665;-92
2022/06/25 03:54:10;;;;;;;4.03;2.70;;;14.30;99.90;;;;;;5035575;28;20195;-91
2022/06/25 03:56:35;;;;;;;3.73;2.77;;;14.30;99.90;;;;;;5025126;28;20271;-91
2022/06/25 03:59:01;;;;;;;3.40;2.70;;;14.30;99.90;;;;;;5036454;28;20998;-92
2022/06/25 04:01:29;;;;;;;3.00;2.80;;;14.30;99.90;;;;;;5039050;28;20199;-91
2022/06/25 04:03:55;;;;;;;4.70;3.07;;;14.30;99.90;;;;;;5034867;28;20195;-91
2022/06/25 04:06:23;;;;;;;3.37;2.40;;;14.30;99.90;;;;;;5043190;28;20437;-91
2022/06/25 04:08:48;;;;;;;3.80;2.73;;;14.30;99.90;;;;;;5034620;28;20843;-91
2022/06/25 04:11:14;;;;;;;2.90;2.57;;;14.40;99.90;;;;;;5036730;28;20294;-91
2022/06/25 04:13:39;;;;;;;2.70;2.47;;;14.40;99.90;;;;;;5041269;28;20241;-91
2022/06/25 04:16:05;;;;;;;3.93;3.43;;;14.50;99.90;;;;;;5037904;28;20210;-90
2022/06/25 04:18:31;;;;;;;2.93;2.70;;;14.50;99.90;;;;;;5040821;28;20198;-91
2022/06/25 04:21:01;;;;;;;3.00;2.70;;;14.50;99.90;;;;;;5037026;28;20184;-90
2022/06/25 04:23:27;;;;;;;2.77;2.50;;;14.60;99.90;;;;;;5037393;28;20430;-91
2022/06/25 04:25:52;;;;;;;3.20;2.90;;;14.60;99.90;;;;;;5040095;28;20796;-90
2022/06/25 04:31:02;;;;;;;4.57;2.83;;;14.60;99.90;;;;;;5037784;28;20203;-91
2022/06/25 04:33:27;;;;;;;5.10;3.20;;;14.70;99.90;;;;;;5028122;28;20442;-90
2022/06/25 04:35:54;;;;;;;2.70;2.50;;;14.70;99.90;;;;;;5040639;28;20187;-90
2022/06/25 04:38:21;;;;;;;3.30;3.00;;;14.70;99.90;;;;;;5049319;28;20176;-91
2022/06/25 04:40:47;;;;;;;3.97;2.87;;;14.80;99.90;;;;;;5031339;28;20438;-92
2022/06/25 04:43:12;;;;;;;3.43;2.90;;;14.90;99.90;;;;;;5031077;28;21433;-91
2022/06/25 04:45:38;;;;;;;3.00;2.80;;;14.90;99.90;;;;;;5036629;28;20191;-92
2022/06/25 04:48:04;;;;;;;2.80;2.50;;;14.90;99.90;;;;;;5028729;28;20227;-92
2022/06/25 04:50:31;;;;;;;3.30;3.00;;;15.00;99.90;;;;;;5028604;28;20187;-93
2022/06/25 04:52:59;;;;;;;3.40;3.10;;;15.00;99.90;;;;;;5036506;28;20214;-93
2022/06/25 04:56:09;;;;;;;2.87;2.67;;;15.10;99.90;;;;;;5034555;28;20442;-93
2022/06/25 04:58:35;;;;;;;3.13;2.90;;;15.20;99.90;;;;;;5033654;28;20479;-92
2022/06/25 05:01:01;;;;;;;2.83;2.63;;;15.20;99.90;;;;;;5042273;28;20455;-92
2022/06/25 05:03:26;;;;;;;2.80;2.60;;;15.30;99.90;;;;;;5036401;28;21786;-93
2022/06/25 05:05:52;;;;;;;3.70;2.33;;;15.40;99.90;;;;;;5035240;28;20531;-93
2022/06/25 05:08:17;;;;;;;2.30;2.00;;;15.40;99.90;;;;;;5037746;28;20238;-93
2022/06/25 05:10:43;;;;;;;4.43;2.97;;;15.50;99.90;;;;;;5038015;28;20202;-92
2022/06/25 05:13:14;;;;;;;2.80;2.63;;;16.00;99.90;;;;;;5038427;28;20233;-92
2022/06/25 05:15:41;;;;;;;3.17;2.97;;;15.60;99.90;;;;;;5032671;28;20187;-93
2022/06/25 05:18:11;;;;;;;2.60;2.40;;;15.60;99.90;;;;;;5036794;28;20438;-93
2022/06/25 05:20:38;;;;;;;2.33;2.23;;;15.60;99.90;;;;;;5036175;28;20450;-91
2022/06/25 05:23:03;;;;;;;3.27;3.00;;;15.60;99.90;;;;;;5033881;28;20526;-90
2022/06/25 05:25:29;;;;;;;2.63;2.53;;;15.60;99.90;;;;;;5036026;28;20520;-89
2022/06/25 05:27:58;;;;;;;3.00;2.80;;;15.60;99.90;;;;;;5034156;28;20382;-89
2022/06/25 05:30:25;;;;;;;2.77;2.57;;;15.60;99.90;;;;;;5048325;28;20434;-93
2022/06/25 05:32:50;;;;;;;2.77;2.57;;;15.70;99.90;;;;;;5036852;28;20434;-93
2022/06/25 05:35:16;;;;;;;2.67;2.47;;;15.70;99.90;;;;;;5038963;28;20426;-92
2022/06/25 05:37:41;;;;;;;2.70;2.50;;;15.80;99.90;;;;;;5031754;28;20196;-93
2022/06/25 05:40:09;;;;;;;2.40;2.30;;;15.90;99.90;;;;;;5032854;28;20187;-93
2022/06/25 05:42:37;;;;;;;2.70;2.50;;;15.90;99.90;;;;;;5038957;28;20218;-93
2022/06/25 05:45:06;;;;;;;2.77;2.00;;;15.90;99.90;;;;;;5039306;28;20445;-93
2022/06/25 05:47:40;;;;;;;2.53;2.30;;;16.00;99.90;;;;;;5035788;28;20508;-90
2022/06/25 05:50:07;;;;;;;4.20;2.20;;;16.00;99.90;;;;;;5055362;28;20784;-90
2022/06/25 05:52:35;;;;;;;3.40;2.50;;;16.00;99.90;;;;;;5033776;28;20460;-89
2022/06/25 05:55:01;;;;;;;2.20;2.10;;;16.10;99.90;;;;;;5034369;28;20792;-89
2022/06/25 05:57:27;;;;;;;2.10;2.00;;;16.20;99.90;;;;;;5027862;28;20839;-92
2022/06/25 05:59:52;;;;;;;2.20;2.10;;;16.10;99.90;;;;;;5037073;28;20448;-92
2022/06/25 06:02:45;;;;;;;2.40;2.30;;;16.20;99.90;;;;;;5033472;28;20579;-92
2022/06/25 06:05:24;;;;;;;2.47;1.87;;;16.30;99.90;;;;;;5036161;28;21501;-91
2022/06/25 06:07:59;;;;;;;2.10;2.00;;;16.40;99.90;;;;;;5032234;28;20481;-88
2022/06/25 06:10:31;;;;;;;2.30;2.10;;;16.40;99.90;;;;;;5027133;28;20183;-88
2022/06/25 06:13:04;;;;;;;2.53;2.30;;;16.50;99.90;;;;;;5020521;28;20447;-89
2022/06/25 06:15:37;;;;;;;2.50;2.30;;;16.50;99.90;;;;;;5020357;28;20446;-89
2022/06/25 06:18:45;;;;;;;2.20;2.10;;;16.60;99.90;;;;;;5029429;28;21418;-90
2022/06/25 06:21:22;;;;;;;2.77;2.20;;;16.80;99.90;;;;;;5036871;28;20443;-90
2022/06/25 06:23:47;;;;;;;1.80;1.70;;;17.00;99.90;;;;;;5025655;28;20441;-89
2022/06/25 06:27:01;;;;;;;2.67;1.80;;;17.10;99.90;;;;;;5022042;28;21161;-89
2022/06/25 06:29:28;;;;;;;3.20;1.90;;;17.20;99.90;;;;;;5021989;28;20337;-90
2022/06/25 06:32:01;;;;;;;1.80;1.70;;;17.20;99.90;;;;;;5038822;28;20469;-89
2022/06/25 06:34:26;;;;;;;2.33;2.23;;;17.20;99.90;;;;;;5035059;28;20561;-92
2022/06/25 06:36:54;;;;;;;3.00;2.10;;;17.40;99.90;;;;;;5026528;28;20446;-91
2022/06/25 06:39:26;;;;;;;1.80;1.70;;;17.40;99.90;;;;;;5021805;28;20253;-90
2022/06/25 06:42:06;;;;;;;1.90;1.80;;;17.50;99.90;;;;;;5028765;28;21189;-89
2022/06/25 06:44:32;;;;;;;2.10;2.00;;;17.50;99.90;;;;;;5049277;28;20450;-90
2022/06/25 06:46:57;;;;;;;1.73;1.63;;;17.50;99.90;;;;;;5031867;28;20430;-89
2022/06/25 06:49:24;;;;;;;1.83;1.73;;;17.60;99.90;;;;;;5033998;28;20758;-89
2022/06/25 06:52:36;;;;;;;1.73;1.50;;;17.70;99.90;;;;;;5026779;28;20281;-88
2022/06/25 06:55:04;;;;;;;2.07;1.63;;;17.90;99.90;;;;;;5025270;28;20442;-88
2022/06/25 06:57:34;;;;;;;1.70;1.60;;;17.90;99.90;;;;;;5035081;28;20438;-89
2022/06/25 07:00:01;;;;;;;2.10;1.43;;;18.10;99.90;;;;;;5028239;28;20459;-88
2022/06/25 07:02:27;;;;;;;1.70;1.60;;;18.80;99.90;;;;;;5024097;28;20494;-89
2022/06/25 07:04:53;;;;;;;1.43;1.33;;;18.30;99.90;;;;;;5025664;28;20453;-89
2022/06/25 07:07:19;;;;;;;2.10;1.60;;;18.40;99.90;;;;;;5031339;28;21084;-88
2022/06/25 07:09:45;;;;;;;2.17;1.47;;;18.40;99.90;;;;;;5028132;28;20188;-89
2022/06/25 07:12:11;;;;;;;1.60;1.50;;;18.60;99.90;;;;;;5023813;28;20209;-89
2022/06/25 07:14:36;;;;;;;1.30;1.20;;;18.50;99.90;;;;;;5033746;28;20802;-88
2022/06/25 07:17:03;;;;;;;1.77;1.67;;;18.60;99.90;;;;;;5030361;28;20184;-89
2022/06/25 07:19:29;;;;;;;2.53;1.50;;;18.70;99.90;;;;;;5028403;28;20192;-91
2022/06/25 07:21:57;;;;;;;1.40;1.40;;;18.90;99.90;;;;;;5023631;28;20528;-91
2022/06/25 07:24:23;;;;;;;1.70;1.60;;;19.40;99.90;;;;;;5031321;28;20180;-95
2022/06/25 07:26:49;;;;;;;1.70;1.40;;;19.10;99.90;;;;;;5041166;28;20504;-88
2022/06/25 07:29:15;;;;;;;1.30;1.30;;;19.30;99.90;;;;;;5034017;28;20991;-89
2022/06/25 07:31:40;;;;;;;1.67;1.50;;;19.30;99.90;;;;;;5036480;28;20202;-90
2022/06/25 07:34:06;;;;;;;1.43;1.33;;;19.30;99.90;;;;;;5032972;28;20190;-90
2022/06/25 07:36:50;;;;;;;1.27;1.27;;;19.40;99.90;;;;;;5028671;28;20180;-91
2022/06/25 07:39:16;;;;;;;1.33;1.33;;;19.00;99.90;;;;;;5024231;28;20438;-91
2022/06/25 07:42:06;;;;;;;1.30;1.20;;;19.20;99.90;;;;;;5030046;28;21140;-91
2022/06/25 07:44:33;;;;;;;4.47;4.03;;;19.20;99.90;;;;;;5038822;28;20541;-91
2022/06/25 07:47:08;;;;;;;7.87;7.13;;;19.20;99.90;;;;;;5039732;28;20470;-89
2022/06/25 07:52:30;;;;;;;1.97;1.37;;;19.20;99.90;;;;;;5049233;28;20556;-92
2022/06/25 07:54:55;;;;;;;2.87;1.53;;;19.30;99.90;;;;;;5046420;28;22132;-91
2022/06/25 07:57:21;;;;;;;1.40;1.30;;;19.50;99.90;;;;;;5039498;28;20187;-92
2022/06/25 07:59:46;;;;;;;1.57;1.47;;;19.60;99.90;;;;;;5039413;28;20191;-89
2022/06/25 08:02:12;;;;;;;3.03;1.53;;;19.60;99.90;;;;;;5040868;28;20187;-89
2022/06/25 08:04:40;;;;;;;1.93;1.60;;;19.60;99.90;;;;;;5023148;28;20866;-89
2022/06/25 08:07:05;;;;;;;1.67;1.57;;;19.70;99.90;;;;;;5041114;28;20180;-90
2022/06/25 08:09:31;;;;;;;2.60;2.10;;;20.00;99.90;;;;;;5037357;28;20482;-89
2022/06/25 08:11:56;;;;;;;3.30;1.77;;;20.20;99.90;;;;;;5040748;28;20628;-90
2022/06/25 08:14:22;;;;;;;2.70;1.63;;;20.40;99.90;;;;;;5041855;28;20183;-90
2022/06/25 08:16:50;;;;;;;1.70;1.60;;;20.40;99.90;;;;;;5039938;28;20545;-89
2022/06/25 08:19:16;;;;;;;1.77;1.67;;;20.60;99.90;;;;;;5035664;28;20183;-91
2022/06/25 08:21:41;;;;;;;2.07;1.87;;;20.60;99.90;;;;;;5034076;28;20445;-89
2022/06/25 08:24:07;;;;;;;3.43;3.20;;;20.60;99.90;;;;;;5049058;28;20186;-88
2022/06/25 08:26:33;;;;;;;3.10;2.10;;;20.50;99.90;;;;;;5040465;28;20175;-89
2022/06/25 08:28:59;;;;;;;2.60;2.40;;;20.40;99.90;;;;;;5039571;28;20627;-90
2022/06/25 08:31:26;;;;;;;2.83;2.00;;;20.30;99.90;;;;;;5035379;28;20499;-90
2022/06/25 08:33:51;;;;;;;2.20;2.10;;;20.40;99.90;;;;;;5040263;28;20184;-89
2022/06/25 08:36:17;;;;;;;2.00;1.90;;;20.80;99.90;;;;;;5034171;28;20473;-90
2022/06/25 08:38:45;;;;;;;2.53;2.30;;;21.00;99.90;;;;;;5042298;28;21413;-90
2022/06/25 08:41:10;;;;;;;3.20;2.60;;;21.20;99.90;;;;;;5039461;28;20223;-90
2022/06/25 08:43:36;;;;;;;2.53;2.43;;;21.20;99.90;;;;;;5043205;28;20956;-90
2022/06/25 08:46:03;;;;;;;2.40;2.20;;;20.80;99.90;;;;;;5031057;28;20195;-91
2022/06/25 08:48:33;;;;;;;2.90;2.23;;;20.60;99.90;;;;;;5039741;28;20542;-90
2022/06/25 08:50:59;;;;;;;4.57;2.23;;;21.00;99.90;;;;;;5030717;28;20438;-89
2022/06/25 08:53:33;;;;;;;3.00;2.50;;;21.10;99.90;;;;;;5046080;28;20443;-90
2022/06/25 08:56:00;;;;;;;2.40;2.20;;;21.00;99.90;;;;;;5035096;28;20430;-90
2022/06/25 08:58:26;;;;;;;2.43;2.33;;;20.80;99.90;;;;;;5040052;28;20434;-90
2022/06/25 09:00:52;;;;;;;2.30;2.00;;;20.90;99.90;;;;;;5042546;28;20518;-88
2022/06/25 09:03:17;;;;;;;2.80;2.40;;;21.10;99.90;;;;;;5040788;28;20431;-89
2022/06/25 09:05:44;;;;;;;2.87;2.57;;;21.10;99.90;;;;;;5038565;28;20429;-89
2022/06/25 09:08:31;;;;;;;2.90;2.33;;;21.30;99.90;;;;;;5041538;28;20215;-91
2022/06/25 09:10:58;;;;;;;2.70;2.40;;;21.80;99.90;;;;;;5028161;28;20492;-91
2022/06/25 09:13:25;;;;;;;3.00;2.80;;;22.20;99.90;;;;;;5036491;28;20449;-90
2022/06/25 09:15:51;;;;;;;2.50;2.40;;;22.30;99.90;;;;;;5037924;28;20442;-91
2022/06/25 09:18:19;;;;;;;2.93;2.73;;;22.30;99.90;;;;;;5039179;28;20495;-90
2022/06/25 09:21:10;;;;;;;2.53;2.33;;;22.20;99.90;;;;;;5021934;28;20180;-90
2022/06/25 09:23:56;;;;;;;2.27;2.07;;;22.20;99.90;;;;;;5039095;28;20438;-90
2022/06/25 09:26:24;;;;;;;2.60;2.40;;;22.50;99.90;;;;;;5037184;28;20595;-90
2022/06/25 09:28:52;;;;;;;3.80;3.00;;;22.60;99.90;;;;;;5043754;28;20474;-90
2022/06/25 09:31:42;;;;;;;3.30;2.90;;;22.50;99.90;;;;;;5040411;28;20516;-91
2022/06/25 09:34:11;;;;;;;5.87;2.90;;;23.00;99.90;;;;;;5041293;28;20445;-90
2022/06/25 09:36:37;;;;;;;2.83;2.60;;;23.30;99.90;;;;;;5040932;28;20472;-90
2022/06/25 09:39:04;;;;;;;2.50;2.30;;;23.30;99.90;;;;;;5045652;28;21856;-91
2022/06/25 09:41:57;;;;;;;2.50;2.30;;;23.10;99.90;;;;;;5039905;28;20188;-91
2022/06/25 09:44:24;;;;;;;2.43;2.23;;;22.90;99.90;;;;;;5039442;28;20442;-89
2022/06/25 09:46:58;;;;;;;2.50;2.30;;;22.60;99.90;;;;;;5048890;28;20430;-91
2022/06/25 09:49:29;;;;;;;2.70;2.50;;;22.80;99.90;;;;;;5029280;28;20490;-91
2022/06/25 09:52:01;;;;;;;3.43;2.70;;;22.90;99.90;;;;;;5039272;28;20431;-91
2022/06/25 09:54:32;;;;;;;2.50;2.30;;;23.20;99.90;;;;;;5042708;28;20445;-92
2022/06/25 09:56:59;;;;;;;2.57;2.47;;;23.40;99.90;;;;;;5037107;28;20519;-92
2022/06/25 09:59:29;;;;;;;2.63;2.43;;;23.60;99.90;;;;;;5034735;28;20604;-94
2022/06/25 10:01:55;;;;;;;3.10;2.80;;;23.70;99.90;;;;;;5033219;28;20446;-93
2022/06/25 10:04:21;;;;;;;2.90;2.23;;;23.90;99.90;;;;;;5038658;28;20442;-90
2022/06/25 10:07:09;;;;;;;4.80;2.33;;;23.70;99.90;;;;;;5037433;28;20180;-90
2022/06/25 10:09:42;;;;;;;3.00;2.23;;;23.50;99.90;;;;;;5051691;28;20450;-90
2022/06/25 10:12:09;;;;;;;2.60;2.27;;;23.80;99.80;;;;;;5033453;28;20791;-88
2022/06/25 10:15:00;;;;;;;2.60;2.40;;;23.90;99.90;;;;;;5036924;28;20521;-91
2022/06/25 10:17:26;;;;;;;2.20;2.10;;;23.90;99.90;;;;;;5028168;28;20433;-91
2022/06/25 10:19:52;;;;;;;2.80;2.60;;;23.60;99.90;;;;;;5033449;28;20430;-90
2022/06/25 10:22:18;;;;;;;2.67;2.47;;;23.50;99.90;;;;;;5032608;28;20267;-87
2022/06/25 10:24:44;;;;;;;2.93;2.73;;;23.10;99.90;;;;;;5039313;28;20545;-87
2022/06/25 10:27:15;;;;;;;2.57;2.20;;;22.70;99.90;;;;;;5017780;28;20322;-88
2022/06/25 10:30:04;;;;;;;2.53;2.40;;;22.50;99.90;;;;;;5028337;28;20446;-87
2022/06/25 10:32:34;;;;;;;2.67;2.57;;;23.10;99.90;;;;;;5030182;28;20506;-86
2022/06/25 10:35:07;;;;;;;4.20;2.50;;;23.70;99.90;;;;;;5027512;28;20544;-87
2022/06/25 10:38:12;;;;;;;2.70;2.50;;;24.10;99.90;;;;;;5025604;28;20572;-89
2022/06/25 10:40:48;;;;;;;2.20;2.10;;;24.50;99.30;;;;;;5024291;28;20187;-87
2022/06/25 10:43:50;;;;;;;2.37;2.17;;;24.40;96.10;;;;;;5029956;28;20429;-87
2022/06/25 10:46:36;;;;;;;4.30;2.37;;;24.40;96.70;;;;;;5011898;28;20445;-87
2022/06/25 10:49:08;;;;;;;5.77;4.63;;;24.80;98.70;;;;;;5049937;28;20480;-88
2022/06/25 10:51:51;;;;;;;2.80;2.60;;;25.10;98.20;;;;;;5034668;28;20434;-88
2022/06/25 10:54:22;;;;;;;5.47;2.87;;;25.00;97.70;;;;;;5033851;28;20496;-88
2022/06/25 10:56:51;;;;;;;2.83;1.80;;;25.00;98.80;;;;;;5037264;28;20436;-87
2022/06/25 10:59:39;;;;;;;2.27;2.17;;;25.20;95.20;;;;;;5038459;28;20437;-87
2022/06/25 11:02:07;;;;;;;4.17;2.30;;;25.20;97.90;;;;;;5033675;28;20450;-87
2022/06/25 11:04:35;;;;;;;2.13;2.03;;;25.40;96.20;;;;;;5036622;28;20470;-88
2022/06/25 11:07:08;;;;;;;2.30;2.10;;;25.70;96.10;;;;;;5035397;28;20451;-89
2022/06/25 11:09:34;;;;;;;2.70;2.50;;;25.80;92.40;;;;;;5036598;28;20441;-88
2022/06/25 11:12:01;;;;;;;2.50;2.30;;;25.70;92.50;;;;;;5038974;28;20947;-88
2022/06/25 11:14:33;;;;;;;2.50;2.30;;;25.70;93.60;;;;;;5053065;28;20893;-87
2022/06/25 11:17:08;;;;;;;2.23;2.13;;;25.60;93.60;;;;;;5023582;28;20446;-87
2022/06/25 11:19:41;;;;;;;2.30;2.20;;;26.00;94.90;;;;;;5024755;28;21029;-88
2022/06/25 11:22:06;;;;;;;2.83;2.10;;;26.50;93.90;;;;;;5054117;28;20466;-88
2022/06/25 11:24:33;;;;;;;4.17;2.20;;;26.80;96.20;;;;;;5043620;28;20430;-88
2022/06/25 11:29:51;;;;;;;2.23;2.10;;;27.10;94.70;;;;;;5039852;28;20962;-88
2022/06/25 11:32:25;;;;;;;2.30;2.10;;;27.00;94.40;;;;;;5038083;28;21096;-88
2022/06/25 11:35:01;;;;;;;4.30;1.93;;;27.00;92.20;;;;;;5042681;28;20433;-88
2022/06/25 11:37:29;;;;;;;3.83;2.10;;;27.40;94.20;;;;;;5039571;28;20449;-88
2022/06/25 11:39:55;;;;;;;2.33;2.10;;;27.10;93.50;;;;;;5041579;28;20810;-88
2022/06/25 11:42:34;;;;;;;2.27;2.17;;;27.40;90.90;;;;;;5044024;28;20524;-88
2022/06/25 11:45:00;;;;;;;2.57;2.37;;;27.00;90.90;;;;;;5053122;28;21122;-88
2022/06/25 11:47:27;;;;;;;2.27;2.10;;;26.90;92.00;;;;;;5041084;28;20433;-88
2022/06/25 11:49:54;;;;;;;2.30;1.93;;;26.70;93.90;;;;;;5039449;28;20650;-88
2022/06/25 11:52:28;;;;;;;2.10;2.00;;;27.00;94.40;;;;;;5042608;28;20438;-88
2022/06/25 11:54:54;;;;;;;2.20;2.10;;;27.30;92.50;;;;;;5031568;28;20827;-88
2022/06/25 11:57:25;;;;;;;2.53;2.33;;;27.80;92.80;;;;;;5042733;28;20532;-88
2022/06/25 11:59:51;;;;;;;2.00;1.90;;;27.50;94.20;;;;;;5038706;28;20454;-88
2022/06/25 12:02:52;;;;;;;3.00;2.60;;;28.10;90.00;;;;;;5044698;28;20432;-88
2022/06/25 12:05:40;;;;;;;2.87;1.93;;;27.80;92.20;;;;;;5041398;28;20955;-88
2022/06/25 12:08:43;;;;;;;2.23;2.13;;;27.20;88.60;;;;;;5040136;28;20473;-88
2022/06/25 12:11:09;;;;;;;2.37;2.20;;;27.10;93.30;;;;;;5039758;28;20446;-88
2022/06/25 12:13:35;;;;;;;3.33;2.30;;;27.50;94.70;;;;;;5046380;28;20436;-88
2022/06/25 12:16:04;;;;;;;2.33;2.13;;;27.80;91.60;;;;;;5042818;28;20191;-88
2022/06/25 12:18:37;;;;;;;2.53;2.33;;;27.40;93.70;;;;;;5008331;28;20187;-88
2022/06/25 12:21:04;;;;;;;4.87;2.30;;;27.40;92.30;;;;;;5058018;28;20479;-88
2022/06/25 12:23:47;;;;;;;2.40;2.30;;;27.40;94.00;;;;;;5037281;28;21008;-88
2022/06/25 12:26:29;;;;;;;2.30;2.17;;;28.10;88.50;;;;;;5044029;28;20488;-88
2022/06/25 12:29:09;;;;;;;2.60;2.17;;;28.40;91.30;;;;;;5042528;28;20473;-88
2022/06/25 12:31:35;;;;;;;2.20;2.00;;;28.40;88.20;;;;;;5044587;28;20433;-88
2022/06/25 12:34:02;;;;;;;2.07;1.97;;;28.60;83.90;;;;;;5045972;28;20434;-89
2022/06/25 12:36:33;;;;;;;1.97;1.87;;;29.00;89.40;;;;;;5046232;28;20894;-88
2022/06/25 12:38:59;;;;;;;2.40;2.30;;;28.80;90.90;;;;;;5044600;28;20533;-88
2022/06/25 12:41:45;;;;;;;2.20;2.10;;;28.50;90.90;;;;;;5044843;28;20783;-88
2022/06/25 12:44:17;;;;;;;2.37;2.20;;;28.00;91.50;;;;;;5041861;28;20454;-88
2022/06/25 12:47:05;;;;;;;2.60;2.30;;;28.10;90.30;;;;;;5047060;28;20531;-88
2022/06/25 12:49:48;;;;;;;2.53;2.43;;;27.60;90.50;;;;;;5048110;28;20481;-88
2022/06/25 12:52:17;;;;;;;2.50;2.30;;;26.90;92.00;;;;;;5045036;28;20495;-88
2022/06/25 12:54:57;;;;;;;2.10;2.00;;;27.20;93.10;;;;;;5045837;28;20426;-88
2022/06/25 12:57:35;;;;;;;2.50;1.87;;;27.90;92.20;;;;;;5026897;28;20429;-88
2022/06/25 13:00:03;;;;;;;2.00;1.90;;;27.70;90.00;;;;;;5046262;28;20461;-88
2022/06/25 13:02:35;;;;;;;2.27;2.00;;;27.40;91.50;;;;;;5042191;28;20449;-88
2022/06/25 13:05:00;;;;;;;2.47;2.33;;;28.10;88.60;;;;;;5041275;28;20954;-88
2022/06/25 13:07:27;;;;;;;2.07;1.90;;;28.30;89.00;;;;;;5039437;28;20860;-88
2022/06/25 13:09:53;;;;;;;2.13;2.03;;;27.90;84.40;;;;;;5043333;28;20184;-88
2022/06/25 13:12:19;;;;;;;1.90;1.60;;;27.80;91.20;;;;;;5027501;28;20817;-88